Slobozia, Romania
Current Conditions -  °F | °C
As of 11:30 PM on Thursday 27 Nov 2014 (Local Time) from LRBS Reporting Station
Overcast Overcast  
Wind Chill: 25°   Ceiling: 1800
Heat Index: 30°   Visibility: 6mi
Dew Point: 23°   Wind: 5mph
Humidity: 75%   Direction: 110°ESE
Pressure: 30.3"   Gusts: NA
Location:  44.57°N, 27.38°E
Report Text: LRBS 272030Z 11004KT 9999 OVC018 M01/M05 Q1026 NOSIG
Loading
Personal Weather Stations






























Interactive Weather Map New forecast layout! Learn more

10-Day Weather Forecast

Advertisements
Track Severe Weather on mobile